sensor_id;sensor_type;location;lat;lon;timestamp;pressure;altitude;pressure_sealevel;temperature;humidity
46456;BME280;64052;47.466;9.094;2022-10-15T00:04:30;95331.47;;;14.73;87.02
46456;BME280;64052;47.466;9.094;2022-10-15T00:09:31;95335.44;;;14.77;87.21
46456;BME280;64052;47.466;9.094;2022-10-15T00:14:33;95324.97;;;15.24;85.36
46456;BME280;64052;47.466;9.094;2022-10-15T00:19:34;95326.56;;;15.41;83.83
46456;BME280;64052;47.466;9.094;2022-10-15T00:24:36;95328.63;;;15.23;84.97
46456;BME280;64052;47.466;9.094;2022-10-15T00:29:37;95334.47;;;15.18;85.25
46456;BME280;64052;47.466;9.094;2022-10-15T00:34:39;95339.25;;;14.74;86.93
46456;BME280;64052;47.466;9.094;2022-10-15T00:39:40;95336.94;;;14.63;87.89
46456;BME280;64052;47.466;9.094;2022-10-15T00:44:46;95348.69;;;14.69;87.33
46456;BME280;64052;47.466;9.094;2022-10-15T00:49:58;95345.16;;;14.93;86.75
46456;BME280;64052;47.466;9.094;2022-10-15T00:55:16;95344.00;;;15.04;86.28
46456;BME280;64052;47.466;9.094;2022-10-15T01:00:19;95338.31;;;15.07;86.22
46456;BME280;64052;47.466;9.094;2022-10-15T01:05:20;95358.75;;;15.07;86.00
46456;BME280;64052;47.466;9.094;2022-10-15T01:10:28;95347.44;;;15.13;85.94
46456;BME280;64052;47.466;9.094;2022-10-15T01:20:50;95347.81;;;15.01;86.39
46456;BME280;64052;47.466;9.094;2022-10-15T01:37:10;95362.94;;;14.93;86.78
46456;BME280;64052;47.466;9.094;2022-10-15T01:42:16;95364.25;;;14.97;86.70
46456;BME280;64052;47.466;9.094;2022-10-15T01:47:42;95358.59;;;15.00;87.48
46456;BME280;64052;47.466;9.094;2022-10-15T01:52:48;95357.81;;;14.83;88.05
46456;BME280;64052;47.466;9.094;2022-10-15T01:57:51;95363.56;;;15.03;87.24
46456;BME280;64052;47.466;9.094;2022-10-15T02:03:00;95346.31;;;14.99;87.49
46456;BME280;64052;47.466;9.094;2022-10-15T02:13:34;95351.31;;;15.02;87.29
46456;BME280;64052;47.466;9.094;2022-10-15T02:18:50;95338.03;;;14.94;87.64
46456;BME280;64052;47.466;9.094;2022-10-15T02:24:07;95339.03;;;15.01;87.24
46456;BME280;64052;47.466;9.094;2022-10-15T02:29:13;95331.44;;;14.81;87.85
46456;BME280;64052;47.466;9.094;2022-10-15T02:34:25;95320.63;;;14.91;87.58
46456;BME280;64052;47.466;9.094;2022-10-15T02:39:32;95328.56;;;14.99;86.85
46456;BME280;64052;47.466;9.094;2022-10-15T02:44:34;95325.84;;;15.16;86.19
46456;BME280;64052;47.466;9.094;2022-10-15T02:49:36;95327.47;;;15.25;85.20
46456;BME280;64052;47.466;9.094;2022-10-15T02:54:37;95316.81;;;15.34;84.30
46456;BME280;64052;47.466;9.094;2022-10-15T02:59:39;95317.72;;;15.17;84.92
46456;BME280;64052;47.466;9.094;2022-10-15T03:04:42;95316.31;;;15.30;84.42
46456;BME280;64052;47.466;9.094;2022-10-15T03:09:44;95312.97;;;15.36;83.86
46456;BME280;64052;47.466;9.094;2022-10-15T03:14:46;95314.94;;;15.42;83.64
46456;BME280;64052;47.466;9.094;2022-10-15T03:19:48;95315.28;;;15.39;83.79
46456;BME280;64052;47.466;9.094;2022-10-15T03:24:50;95306.13;;;15.42;83.49
46456;BME280;64052;47.466;9.094;2022-10-15T03:29:57;95307.13;;;15.41;83.49
46456;BME280;64052;47.466;9.094;2022-10-15T03:35:02;95314.66;;;15.37;83.48
46456;BME280;64052;47.466;9.094;2022-10-15T03:40:06;95332.00;;;15.48;82.90
46456;BME280;64052;47.466;9.094;2022-10-15T03:45:15;95331.25;;;15.63;81.37
46456;BME280;64052;47.466;9.094;2022-10-15T03:50:17;95330.25;;;15.64;80.86
46456;BME280;64052;47.466;9.094;2022-10-15T03:55:19;95331.13;;;15.56;80.69
46456;BME280;64052;47.466;9.094;2022-10-15T04:00:21;95328.59;;;15.63;80.13
46456;BME280;64052;47.466;9.094;2022-10-15T04:05:26;95331.09;;;15.64;80.12
46456;BME280;64052;47.466;9.094;2022-10-15T04:10:34;95329.91;;;15.67;80.10
46456;BME280;64052;47.466;9.094;2022-10-15T04:15:39;95330.38;;;15.70;79.55
46456;BME280;64052;47.466;9.094;2022-10-15T04:20:44;95337.44;;;15.55;80.27
46456;BME280;64052;47.466;9.094;2022-10-15T04:25:48;95335.91;;;15.29;82.01
46456;BME280;64052;47.466;9.094;2022-10-15T04:30:55;95337.06;;;15.35;81.79
46456;BME280;64052;47.466;9.094;2022-10-15T04:36:06;95338.25;;;15.24;82.41
46456;BME280;64052;47.466;9.094;2022-10-15T04:41:46;95339.31;;;15.14;83.03
46456;BME280;64052;47.466;9.094;2022-10-15T04:46:56;95343.47;;;15.09;82.92
46456;BME280;64052;47.466;9.094;2022-10-15T04:52:17;95340.78;;;15.17;83.02
46456;BME280;64052;47.466;9.094;2022-10-15T04:57:26;95337.31;;;15.16;82.87
46456;BME280;64052;47.466;9.094;2022-10-15T05:02:28;95331.84;;;15.10;83.75
46456;BME280;64052;47.466;9.094;2022-10-15T05:07:43;95335.00;;;15.13;83.71
46456;BME280;64052;47.466;9.094;2022-10-15T05:12:45;95343.13;;;15.12;83.80
46456;BME280;64052;47.466;9.094;2022-10-15T05:17:46;95342.63;;;15.16;84.48
46456;BME280;64052;47.466;9.094;2022-10-15T05:22:48;95347.72;;;15.18;84.02
46456;BME280;64052;47.466;9.094;2022-10-15T05:27:50;95342.44;;;15.18;84.11
46456;BME280;64052;47.466;9.094;2022-10-15T05:32:53;95348.72;;;15.25;84.64
46456;BME280;64052;47.466;9.094;2022-10-15T05:37:56;95353.44;;;15.46;84.24
46456;BME280;64052;47.466;9.094;2022-10-15T05:42:57;95354.56;;;15.52;82.93
46456;BME280;64052;47.466;9.094;2022-10-15T05:47:59;95356.34;;;15.60;82.42
46456;BME280;64052;47.466;9.094;2022-10-15T05:53:01;95370.31;;;15.62;82.63
46456;BME280;64052;47.466;9.094;2022-10-15T05:58:11;95380.34;;;15.75;82.28
46456;BME280;64052;47.466;9.094;2022-10-15T06:03:12;95373.66;;;15.56;82.86
46456;BME280;64052;47.466;9.094;2022-10-15T06:08:14;95385.06;;;15.65;82.65
46456;BME280;64052;47.466;9.094;2022-10-15T06:13:16;95379.88;;;15.71;82.68
46456;BME280;64052;47.466;9.094;2022-10-15T06:18:17;95377.44;;;15.62;83.19
46456;BME280;64052;47.466;9.094;2022-10-15T06:23:19;95387.41;;;15.59;81.93
46456;BME280;64052;47.466;9.094;2022-10-15T06:28:20;95400.44;;;15.78;81.84
46456;BME280;64052;47.466;9.094;2022-10-15T06:33:22;95395.25;;;15.84;81.34
46456;BME280;64052;47.466;9.094;2022-10-15T06:38:23;95410.84;;;15.87;81.44
46456;BME280;64052;47.466;9.094;2022-10-15T06:43:25;95426.81;;;15.87;81.20
46456;BME280;64052;47.466;9.094;2022-10-15T06:48:31;95431.22;;;15.72;82.02
46456;BME280;64052;47.466;9.094;2022-10-15T06:53:33;95448.19;;;15.63;83.17
46456;BME280;64052;47.466;9.094;2022-10-15T06:58:34;95455.16;;;15.55;83.45
46456;BME280;64052;47.466;9.094;2022-10-15T07:03:36;95462.16;;;15.56;84.16
46456;BME280;64052;47.466;9.094;2022-10-15T07:08:39;95463.47;;;15.60;83.78
46456;BME280;64052;47.466;9.094;2022-10-15T07:13:40;95466.44;;;15.66;83.13
46456;BME280;64052;47.466;9.094;2022-10-15T07:18:42;95456.66;;;15.66;82.72
46456;BME280;64052;47.466;9.094;2022-10-15T07:23:43;95454.63;;;15.68;82.16
46456;BME280;64052;47.466;9.094;2022-10-15T07:28:45;95461.53;;;15.86;82.25
46456;BME280;64052;47.466;9.094;2022-10-15T07:33:46;95468.69;;;15.94;82.24
46456;BME280;64052;47.466;9.094;2022-10-15T07:38:47;95478.97;;;15.97;81.35
46456;BME280;64052;47.466;9.094;2022-10-15T07:43:51;95486.28;;;15.95;79.95
46456;BME280;64052;47.466;9.094;2022-10-15T07:48:52;95482.56;;;16.04;78.52
46456;BME280;64052;47.466;9.094;2022-10-15T07:53:54;95486.19;;;16.11;79.34
46456;BME280;64052;47.466;9.094;2022-10-15T07:58:56;95484.84;;;16.15;79.44
46456;BME280;64052;47.466;9.094;2022-10-15T08:03:57;95485.44;;;16.26;79.72
46456;BME280;64052;47.466;9.094;2022-10-15T08:08:58;95488.03;;;16.42;77.76
46456;BME280;64052;47.466;9.094;2022-10-15T08:14:05;95484.34;;;16.67;76.22
46456;BME280;64052;47.466;9.094;2022-10-15T08:19:06;95478.59;;;16.78;74.54
46456;BME280;64052;47.466;9.094;2022-10-15T08:24:08;95484.69;;;16.87;73.85
46456;BME280;64052;47.466;9.094;2022-10-15T08:29:09;95492.97;;;16.92;74.23
46456;BME280;64052;47.466;9.094;2022-10-15T08:34:11;95484.38;;;17.05;74.19
46456;BME280;64052;47.466;9.094;2022-10-15T08:39:12;95488.22;;;17.03;71.99
46456;BME280;64052;47.466;9.094;2022-10-15T08:44:26;95499.19;;;17.08;71.59
46456;BME280;64052;47.466;9.094;2022-10-15T08:49:39;95496.53;;;17.08;71.67
46456;BME280;64052;47.466;9.094;2022-10-15T08:54:43;95498.34;;;17.07;70.39
46456;BME280;64052;47.466;9.094;2022-10-15T09:10:50;95506.44;;;17.14;71.22
46456;BME280;64052;47.466;9.094;2022-10-15T09:16:17;95512.19;;;17.26;69.94
46456;BME280;64052;47.466;9.094;2022-10-15T09:21:21;95511.53;;;17.39;68.97
46456;BME280;64052;47.466;9.094;2022-10-15T09:26:31;95514.41;;;17.52;68.97
46456;BME280;64052;47.466;9.094;2022-10-15T09:31:46;95502.47;;;17.48;69.66
46456;BME280;64052;47.466;9.094;2022-10-15T09:36:57;95509.34;;;17.42;68.31
46456;BME280;64052;47.466;9.094;2022-10-15T09:47:30;95519.28;;;17.49;66.88
46456;BME280;64052;47.466;9.094;2022-10-15T09:52:46;95521.13;;;17.48;66.17
46456;BME280;64052;47.466;9.094;2022-10-15T09:57:55;95526.06;;;17.51;67.06
46456;BME280;64052;47.466;9.094;2022-10-15T10:03:06;95525.16;;;17.59;65.63
46456;BME280;64052;47.466;9.094;2022-10-15T10:08:15;95521.94;;;17.64;67.21
46456;BME280;64052;47.466;9.094;2022-10-15T10:13:26;95519.19;;;17.57;66.70
46456;BME280;64052;47.466;9.094;2022-10-15T10:18:28;95521.22;;;17.55;64.52
46456;BME280;64052;47.466;9.094;2022-10-15T10:23:37;95504.66;;;17.60;66.32
46456;BME280;64052;47.466;9.094;2022-10-15T10:33:48;95516.44;;;17.65;65.10
46456;BME280;64052;47.466;9.094;2022-10-15T10:44:18;95522.88;;;17.71;65.32
46456;BME280;64052;47.466;9.094;2022-10-15T10:49:30;95531.50;;;17.73;64.74
46456;BME280;64052;47.466;9.094;2022-10-15T10:54:33;95531.13;;;17.76;64.25
46456;BME280;64052;47.466;9.094;2022-10-15T10:59:38;95527.94;;;17.66;63.92
46456;BME280;64052;47.466;9.094;2022-10-15T11:04:44;95522.50;;;17.59;64.25
46456;BME280;64052;47.466;9.094;2022-10-15T11:09:54;95524.59;;;17.64;63.99
46456;BME280;64052;47.466;9.094;2022-10-15T11:20:29;95526.72;;;17.68;64.73
46456;BME280;64052;47.466;9.094;2022-10-15T11:32:04;95528.13;;;17.64;64.54
46456;BME280;64052;47.466;9.094;2022-10-15T11:37:25;95525.72;;;17.69;64.96
46456;BME280;64052;47.466;9.094;2022-10-15T11:42:42;95528.22;;;17.71;64.60
46456;BME280;64052;47.466;9.094;2022-10-15T11:58:53;95514.84;;;18.01;63.11
46456;BME280;64052;47.466;9.094;2022-10-15T12:04:09;95498.22;;;17.99;62.99
46456;BME280;64052;47.466;9.094;2022-10-15T12:09:27;95491.78;;;18.08;62.05
46456;BME280;64052;47.466;9.094;2022-10-15T12:14:39;95473.69;;;18.40;62.18
46456;BME280;64052;47.466;9.094;2022-10-15T12:19:50;95474.88;;;18.38;61.62
46456;BME280;64052;47.466;9.094;2022-10-15T12:24:54;95470.59;;;18.59;60.72
46456;BME280;64052;47.466;9.094;2022-10-15T12:35:01;95449.38;;;19.29;59.27
46456;BME280;64052;47.466;9.094;2022-10-15T12:40:27;95444.22;;;19.63;58.22
46456;BME280;64052;47.466;9.094;2022-10-15T12:45:36;95430.47;;;20.15;56.92
46456;BME280;64052;47.466;9.094;2022-10-15T12:50:41;95436.34;;;20.79;54.17
46456;BME280;64052;47.466;9.094;2022-10-15T12:55:42;95423.13;;;21.45;51.98
46456;BME280;64052;47.466;9.094;2022-10-15T13:00:44;95421.84;;;21.54;52.32
46456;BME280;64052;47.466;9.094;2022-10-15T13:05:45;95436.50;;;21.58;51.38
46456;BME280;64052;47.466;9.094;2022-10-15T13:10:56;95428.75;;;20.83;54.23
46456;BME280;64052;47.466;9.094;2022-10-15T13:16:00;95430.97;;;20.59;56.44
46456;BME280;64052;47.466;9.094;2022-10-15T13:21:02;95432.59;;;20.40;55.94
46456;BME280;64052;47.466;9.094;2022-10-15T13:31:29;95434.34;;;20.05;57.72
46456;BME280;64052;47.466;9.094;2022-10-15T13:36:32;95422.63;;;20.06;57.84
46456;BME280;64052;47.466;9.094;2022-10-15T13:41:37;95420.16;;;20.18;58.36
46456;BME280;64052;47.466;9.094;2022-10-15T13:46:39;95414.78;;;20.05;57.91
46456;BME280;64052;47.466;9.094;2022-10-15T13:51:50;95414.56;;;20.00;58.95
46456;BME280;64052;47.466;9.094;2022-10-15T13:56:54;95412.94;;;20.05;58.25
46456;BME280;64052;47.466;9.094;2022-10-15T14:02:01;95406.16;;;20.10;58.19
46456;BME280;64052;47.466;9.094;2022-10-15T14:07:17;95410.28;;;20.12;58.04
46456;BME280;64052;47.466;9.094;2022-10-15T14:12:22;95418.50;;;20.11;58.04
46456;BME280;64052;47.466;9.094;2022-10-15T14:17:25;95423.44;;;20.00;59.05
46456;BME280;64052;47.466;9.094;2022-10-15T14:22:28;95414.50;;;19.86;57.74
46456;BME280;64052;47.466;9.094;2022-10-15T14:27:29;95410.91;;;19.65;59.17
46456;BME280;64052;47.466;9.094;2022-10-15T14:32:44;95417.81;;;19.46;58.89
46456;BME280;64052;47.466;9.094;2022-10-15T14:37:46;95427.19;;;19.29;60.07
46456;BME280;64052;47.466;9.094;2022-10-15T14:43:03;95432.00;;;19.12;61.61
46456;BME280;64052;47.466;9.094;2022-10-15T14:48:15;95429.38;;;18.96;61.58
46456;BME280;64052;47.466;9.094;2022-10-15T14:53:23;95433.88;;;18.89;62.89
46456;BME280;64052;47.466;9.094;2022-10-15T14:58:26;95434.75;;;18.75;63.10
46456;BME280;64052;47.466;9.094;2022-10-15T15:03:43;95436.75;;;18.66;64.07
46456;BME280;64052;47.466;9.094;2022-10-15T15:08:46;95438.16;;;18.62;65.21
46456;BME280;64052;47.466;9.094;2022-10-15T15:13:48;95434.78;;;18.53;67.35
46456;BME280;64052;47.466;9.094;2022-10-15T15:18:49;95427.28;;;18.42;68.35
46456;BME280;64052;47.466;9.094;2022-10-15T15:23:51;95439.34;;;18.37;69.39
46456;BME280;64052;47.466;9.094;2022-10-15T15:28:52;95430.06;;;18.33;71.11
46456;BME280;64052;47.466;9.094;2022-10-15T15:33:56;95431.84;;;18.26;68.89
46456;BME280;64052;47.466;9.094;2022-10-15T15:38:58;95427.34;;;18.26;70.56
46456;BME280;64052;47.466;9.094;2022-10-15T15:44:00;95428.09;;;18.20;73.94
46456;BME280;64052;47.466;9.094;2022-10-15T15:49:01;95428.41;;;18.10;73.96
46456;BME280;64052;47.466;9.094;2022-10-15T15:54:03;95428.59;;;18.09;73.21
46456;BME280;64052;47.466;9.094;2022-10-15T15:59:04;95431.97;;;18.18;73.80
46456;BME280;64052;47.466;9.094;2022-10-15T16:04:06;95440.13;;;18.31;71.99
46456;BME280;64052;47.466;9.094;2022-10-15T16:09:07;95435.47;;;18.40;71.48
46456;BME280;64052;47.466;9.094;2022-10-15T16:14:09;95430.06;;;18.33;71.70
46456;BME280;64052;47.466;9.094;2022-10-15T16:19:10;95439.59;;;18.21;72.79
46456;BME280;64052;47.466;9.094;2022-10-15T16:24:12;95441.28;;;18.07;73.44
46456;BME280;64052;47.466;9.094;2022-10-15T16:29:13;95458.41;;;17.82;74.35
46456;BME280;64052;47.466;9.094;2022-10-15T16:34:15;95450.88;;;17.71;74.79
46456;BME280;64052;47.466;9.094;2022-10-15T16:39:16;95465.31;;;17.47;75.60
46456;BME280;64052;47.466;9.094;2022-10-15T16:44:18;95476.63;;;17.34;76.11
46456;BME280;64052;47.466;9.094;2022-10-15T16:49:19;95469.63;;;17.18;76.36
46456;BME280;64052;47.466;9.094;2022-10-15T16:54:21;95478.59;;;17.02;77.29
46456;BME280;64052;47.466;9.094;2022-10-15T16:59:22;95484.09;;;16.77;77.92
46456;BME280;64052;47.466;9.094;2022-10-15T17:04:26;95495.28;;;16.72;77.51
46456;BME280;64052;47.466;9.094;2022-10-15T17:09:27;95499.84;;;16.63;77.43
46456;BME280;64052;47.466;9.094;2022-10-15T17:14:29;95505.44;;;16.45;76.81
46456;BME280;64052;47.466;9.094;2022-10-15T17:19:33;95505.03;;;16.33;76.76
46456;BME280;64052;47.466;9.094;2022-10-15T17:24:35;95523.59;;;16.41;76.60
46456;BME280;64052;47.466;9.094;2022-10-15T17:29:36;95534.59;;;16.38;76.34
46456;BME280;64052;47.466;9.094;2022-10-15T17:34:38;95526.31;;;16.33;77.49
46456;BME280;64052;47.466;9.094;2022-10-15T17:39:39;95538.41;;;16.36;77.81
46456;BME280;64052;47.466;9.094;2022-10-15T17:44:40;95538.66;;;16.26;77.95
46456;BME280;64052;47.466;9.094;2022-10-15T17:49:42;95539.88;;;16.15;78.95
46456;BME280;64052;47.466;9.094;2022-10-15T17:54:44;95541.38;;;16.18;78.87
46456;BME280;64052;47.466;9.094;2022-10-15T17:59:45;95540.81;;;16.22;78.27
46456;BME280;64052;47.466;9.094;2022-10-15T18:04:51;95545.31;;;16.22;78.20
46456;BME280;64052;47.466;9.094;2022-10-15T18:09:52;95550.00;;;16.20;77.65
46456;BME280;64052;47.466;9.094;2022-10-15T18:14:54;95561.16;;;16.15;77.25
46456;BME280;64052;47.466;9.094;2022-10-15T18:19:58;95571.94;;;16.13;77.03
46456;BME280;64052;47.466;9.094;2022-10-15T18:24:59;95585.75;;;16.09;76.94
46456;BME280;64052;47.466;9.094;2022-10-15T18:30:00;95591.59;;;16.04;76.54
46456;BME280;64052;47.466;9.094;2022-10-15T18:35:03;95589.94;;;16.03;76.45
46456;BME280;64052;47.466;9.094;2022-10-15T18:40:06;95582.66;;;15.97;76.12
46456;BME280;64052;47.466;9.094;2022-10-15T18:45:07;95583.81;;;15.94;75.92
46456;BME280;64052;47.466;9.094;2022-10-15T18:50:09;95585.66;;;15.94;75.95
46456;BME280;64052;47.466;9.094;2022-10-15T18:55:13;95586.97;;;15.98;76.02
46456;BME280;64052;47.466;9.094;2022-10-15T19:00:15;95576.84;;;15.93;75.62
46456;BME280;64052;47.466;9.094;2022-10-15T19:05:17;95579.34;;;15.86;76.32
46456;BME280;64052;47.466;9.094;2022-10-15T19:10:18;95593.34;;;15.72;77.12
46456;BME280;64052;47.466;9.094;2022-10-15T19:15:20;95593.53;;;15.62;77.37
46456;BME280;64052;47.466;9.094;2022-10-15T19:20:21;95589.72;;;15.56;77.71
46456;BME280;64052;47.466;9.094;2022-10-15T19:25:23;95590.03;;;15.53;78.14
46456;BME280;64052;47.466;9.094;2022-10-15T19:30:24;95591.38;;;15.41;78.85
46456;BME280;64052;47.466;9.094;2022-10-15T19:35:26;95593.06;;;15.34;79.11
46456;BME280;64052;47.466;9.094;2022-10-15T19:40:29;95593.53;;;15.29;79.43
46456;BME280;64052;47.466;9.094;2022-10-15T19:45:38;95583.75;;;15.21;79.94
46456;BME280;64052;47.466;9.094;2022-10-15T19:50:44;95582.75;;;15.14;80.06
46456;BME280;64052;47.466;9.094;2022-10-15T19:55:55;95591.38;;;15.16;79.89
46456;BME280;64052;47.466;9.094;2022-10-15T20:00:57;95592.38;;;15.15;79.26
46456;BME280;64052;47.466;9.094;2022-10-15T20:05:58;95590.88;;;15.21;78.85
46456;BME280;64052;47.466;9.094;2022-10-15T20:11:00;95600.84;;;15.18;78.71
46456;BME280;64052;47.466;9.094;2022-10-15T20:16:07;95611.81;;;15.15;78.37
46456;BME280;64052;47.466;9.094;2022-10-15T20:21:11;95610.47;;;15.11;78.17
46456;BME280;64052;47.466;9.094;2022-10-15T20:26:14;95621.09;;;15.20;77.93
46456;BME280;64052;47.466;9.094;2022-10-15T20:31:17;95619.75;;;15.24;76.92
46456;BME280;64052;47.466;9.094;2022-10-15T20:36:19;95619.78;;;15.32;76.40
46456;BME280;64052;47.466;9.094;2022-10-15T20:41:24;95626.22;;;15.29;76.66
46456;BME280;64052;47.466;9.094;2022-10-15T20:46:36;95633.88;;;15.24;76.85
46456;BME280;64052;47.466;9.094;2022-10-15T20:51:41;95630.38;;;15.24;76.76
46456;BME280;64052;47.466;9.094;2022-10-15T20:56:44;95635.53;;;15.17;76.63
46456;BME280;64052;47.466;9.094;2022-10-15T21:01:45;95637.84;;;15.12;76.86
46456;BME280;64052;47.466;9.094;2022-10-15T21:06:47;95652.16;;;15.19;76.92
46456;BME280;64052;47.466;9.094;2022-10-15T21:11:48;95650.66;;;15.41;76.13
46456;BME280;64052;47.466;9.094;2022-10-15T21:16:50;95660.47;;;15.57;75.13
46456;BME280;64052;47.466;9.094;2022-10-15T21:21:51;95664.75;;;15.50;74.35
46456;BME280;64052;47.466;9.094;2022-10-15T21:26:53;95677.72;;;15.62;73.90
46456;BME280;64052;47.466;9.094;2022-10-15T21:31:54;95680.22;;;15.38;74.23
46456;BME280;64052;47.466;9.094;2022-10-15T21:36:56;95685.97;;;15.17;75.39
46456;BME280;64052;47.466;9.094;2022-10-15T21:41:57;95691.00;;;15.20;75.36
46456;BME280;64052;47.466;9.094;2022-10-15T21:46:59;95674.22;;;15.44;74.05
46456;BME280;64052;47.466;9.094;2022-10-15T21:52:00;95672.91;;;15.32;74.67
46456;BME280;64052;47.466;9.094;2022-10-15T21:57:01;95679.53;;;15.20;74.88
46456;BME280;64052;47.466;9.094;2022-10-15T22:02:03;95667.72;;;14.97;76.05
46456;BME280;64052;47.466;9.094;2022-10-15T22:07:05;95679.75;;;14.75;76.91
46456;BME280;64052;47.466;9.094;2022-10-15T22:12:06;95677.59;;;14.79;76.76
46456;BME280;64052;47.466;9.094;2022-10-15T22:17:07;95679.66;;;15.01;75.78
46456;BME280;64052;47.466;9.094;2022-10-15T22:22:09;95686.53;;;14.69;77.06
46456;BME280;64052;47.466;9.094;2022-10-15T22:27:10;95683.91;;;14.78;77.31
46456;BME280;64052;47.466;9.094;2022-10-15T22:32:12;95687.41;;;14.86;76.75
46456;BME280;64052;47.466;9.094;2022-10-15T22:37:13;95687.66;;;14.67;77.28
46456;BME280;64052;47.466;9.094;2022-10-15T22:42:15;95682.28;;;14.85;76.90
46456;BME280;64052;47.466;9.094;2022-10-15T22:47:16;95678.56;;;14.69;76.90
46456;BME280;64052;47.466;9.094;2022-10-15T22:52:17;95694.38;;;14.79;76.83
46456;BME280;64052;47.466;9.094;2022-10-15T22:57:19;95686.41;;;14.79;77.01
46456;BME280;64052;47.466;9.094;2022-10-15T23:02:20;95693.38;;;14.80;76.63
46456;BME280;64052;47.466;9.094;2022-10-15T23:07:22;95695.91;;;14.98;76.58
46456;BME280;64052;47.466;9.094;2022-10-15T23:12:23;95684.44;;;14.98;75.85
46456;BME280;64052;47.466;9.094;2022-10-15T23:17:25;95696.22;;;14.87;76.14
46456;BME280;64052;47.466;9.094;2022-10-15T23:22:26;95691.06;;;14.77;75.91
46456;BME280;64052;47.466;9.094;2022-10-15T23:27:28;95697.63;;;14.65;76.24
46456;BME280;64052;47.466;9.094;2022-10-15T23:32:30;95687.97;;;15.07;75.14
46456;BME280;64052;47.466;9.094;2022-10-15T23:37:31;95686.28;;;14.97;75.66
46456;BME280;64052;47.466;9.094;2022-10-15T23:42:33;95697.22;;;14.86;75.95
46456;BME280;64052;47.466;9.094;2022-10-15T23:47:34;95703.19;;;14.88;75.63
46456;BME280;64052;47.466;9.094;2022-10-15T23:52:36;95698.03;;;14.78;75.94
46456;BME280;64052;47.466;9.094;2022-10-15T23:57:37;95697.03;;;14.87;75.88
